Time;durP1;ratioP1;P1;durP2;ratioP2;P2;SDS_P1;SDS_P2;PMS_P1;PMS_P2;Temp;Humidity;BMP_temperature;BMP_pressure;BME280_temperature;BME280_humidity;BME280_pressure;Samples;Min_cycle;Max_cycle;Signal;HPM_P1;HPM_P2
2022/05/16 00:02:05;;;;;;;9.07;4.68;;;14.70;99.90;;;;;;5092191;28;20119;-68
2022/05/16 00:04:31;;;;;;;10.15;4.30;;;14.70;99.90;;;;;;5092520;28;20124;-68
2022/05/16 00:06:57;;;;;;;10.63;4.80;;;14.70;99.90;;;;;;5092244;28;20123;-68
2022/05/16 00:09:22;;;;;;;13.50;4.22;;;14.60;99.90;;;;;;5091883;28;20063;-67
2022/05/16 00:11:48;;;;;;;12.85;5.35;;;14.60;99.90;;;;;;5092169;28;20036;-67
2022/05/16 00:14:14;;;;;;;14.88;4.68;;;14.70;99.90;;;;;;5092048;28;20088;-68
2022/05/16 00:16:39;;;;;;;9.48;4.57;;;14.70;99.90;;;;;;5092042;28;20039;-67
2022/05/16 00:19:05;;;;;;;11.30;4.70;;;14.70;99.90;;;;;;5091726;28;20042;-68
2022/05/16 00:21:32;;;;;;;13.10;4.80;;;14.70;99.90;;;;;;5092071;28;20032;-67
2022/05/16 00:23:57;;;;;;;11.13;5.15;;;14.70;99.90;;;;;;5092019;28;20090;-67
2022/05/16 00:26:23;;;;;;;17.48;4.40;;;14.60;99.90;;;;;;5091939;28;20036;-67
2022/05/16 00:28:48;;;;;;;11.68;3.92;;;14.60;99.90;;;;;;5091298;28;20508;-67
2022/05/16 00:31:14;;;;;;;14.23;5.47;;;14.60;99.90;;;;;;5091670;28;20114;-67
2022/05/16 00:33:41;;;;;;;11.52;4.47;;;14.60;99.90;;;;;;5091932;28;20402;-67
2022/05/16 00:36:08;;;;;;;10.35;4.35;;;14.60;99.90;;;;;;5090433;28;20039;-67
2022/05/16 00:38:33;;;;;;;16.17;5.30;;;14.60;99.90;;;;;;5091350;28;20048;-67
2022/05/16 00:41:01;;;;;;;12.57;4.28;;;14.60;99.90;;;;;;5091624;28;20040;-68
2022/05/16 00:43:44;;;;;;;14.15;4.32;;;14.50;99.90;;;;;;5091487;28;20069;-68
2022/05/16 00:46:11;;;;;;;12.35;4.57;;;14.50;99.90;;;;;;5091676;28;20040;-67
2022/05/16 00:48:36;;;;;;;10.07;4.47;;;14.50;99.90;;;;;;5091156;28;20043;-68
2022/05/16 00:51:04;;;;;;;14.07;4.47;;;14.50;99.90;;;;;;5090365;28;20028;-67
2022/05/16 00:53:30;;;;;;;11.25;4.65;;;14.40;99.90;;;;;;5090098;28;20036;-67
2022/05/16 00:55:56;;;;;;;10.52;4.85;;;14.40;99.90;;;;;;5091264;28;20107;-68
2022/05/16 00:58:22;;;;;;;11.52;4.55;;;14.40;99.90;;;;;;5089678;28;20106;-68
2022/05/16 01:00:48;;;;;;;12.68;4.93;;;14.20;99.90;;;;;;5090963;28;20052;-67
2022/05/16 01:06:04;;;;;;;11.15;4.25;;;14.40;99.90;;;;;;5091205;28;20119;-67
2022/05/16 01:08:33;;;;;;;15.15;4.68;;;14.40;99.90;;;;;;5090617;28;20115;-68
2022/05/16 01:11:02;;;;;;;12.60;4.32;;;14.40;99.90;;;;;;5091061;28;20047;-68
2022/05/16 01:13:30;;;;;;;13.30;4.78;;;14.30;99.90;;;;;;5090810;28;20119;-68
2022/05/16 01:15:57;;;;;;;13.10;4.63;;;14.30;99.90;;;;;;5089646;28;20040;-67
2022/05/16 01:18:25;;;;;;;14.50;4.85;;;14.20;99.90;;;;;;5090769;28;20043;-67
2022/05/16 01:21:14;;;;;;;8.70;4.60;;;14.20;99.90;;;;;;5091023;28;20044;-67
2022/05/16 01:23:50;;;;;;;11.07;4.50;;;14.20;99.90;;;;;;5091096;28;20119;-68
2022/05/16 01:26:20;;;;;;;7.85;4.25;;;14.20;99.90;;;;;;5091270;28;20063;-67
2022/05/16 01:28:45;;;;;;;10.93;4.20;;;14.20;99.90;;;;;;5090461;28;20051;-67
2022/05/16 01:31:12;;;;;;;12.52;4.10;;;14.10;99.90;;;;;;5090936;28;20451;-67
2022/05/16 01:33:38;;;;;;;10.70;4.47;;;14.10;99.90;;;;;;5090769;28;20511;-67
2022/05/16 01:36:04;;;;;;;9.52;4.00;;;14.10;99.90;;;;;;5091009;28;20043;-68
2022/05/16 01:38:31;;;;;;;13.50;3.92;;;14.20;99.90;;;;;;5090388;28;20079;-67
2022/05/16 01:41:00;;;;;;;10.80;4.13;;;14.30;99.90;;;;;;5090975;28;20043;-68
2022/05/16 01:43:31;;;;;;;10.30;3.70;;;14.30;99.90;;;;;;5089591;28;20055;-67
2022/05/16 01:45:57;;;;;;;12.50;3.53;;;14.30;99.90;;;;;;5090690;28;20131;-67
2022/05/16 01:48:23;;;;;;;12.13;4.25;;;14.30;99.90;;;;;;5090393;28;20126;-67
2022/05/16 01:50:50;;;;;;;9.48;3.63;;;14.30;99.90;;;;;;5090761;28;20495;-67
2022/05/16 01:53:17;;;;;;;16.75;4.43;;;14.30;99.90;;;;;;5089489;28;20040;-67
2022/05/16 01:55:43;;;;;;;14.90;4.32;;;14.30;99.90;;;;;;5090730;28;20051;-67
2022/05/16 01:58:09;;;;;;;13.20;4.20;;;14.30;99.90;;;;;;5090401;28;20523;-68
2022/05/16 02:00:36;;;;;;;12.30;4.07;;;14.30;99.90;;;;;;5090094;28;20084;-67
2022/05/16 02:03:03;;;;;;;13.95;4.20;;;14.30;99.90;;;;;;5089392;28;20610;-67
2022/05/16 02:05:29;;;;;;;9.63;3.42;;;14.30;99.90;;;;;;5090717;28;20040;-67
2022/05/16 02:07:54;;;;;;;13.07;4.15;;;14.30;99.90;;;;;;5090463;28;20043;-67
2022/05/16 02:10:23;;;;;;;11.88;4.15;;;14.30;99.90;;;;;;5090356;28;20033;-67
2022/05/16 02:12:50;;;;;;;12.77;4.13;;;14.20;99.90;;;;;;5090577;28;20086;-67
2022/05/16 02:15:22;;;;;;;14.65;3.88;;;14.30;99.90;;;;;;5090377;28;20078;-67
2022/05/16 02:17:48;;;;;;;11.57;3.70;;;14.20;99.90;;;;;;5090752;28;20040;-67
2022/05/16 02:20:15;;;;;;;16.73;4.57;;;14.20;99.90;;;;;;5090275;28;20070;-67
2022/05/16 02:25:25;;;;;;;8.07;3.45;;;14.20;99.90;;;;;;5094142;28;20048;-67
2022/05/16 02:27:52;;;;;;;10.00;4.05;;;14.20;99.90;;;;;;5093974;28;20062;-68
2022/05/16 02:30:21;;;;;;;10.60;3.78;;;14.20;99.90;;;;;;5092434;28;20040;-67
2022/05/16 02:32:47;;;;;;;7.30;3.72;;;14.20;99.90;;;;;;5094162;28;20075;-68
2022/05/16 02:35:13;;;;;;;12.63;4.13;;;14.20;99.90;;;;;;5094096;28;20047;-67
2022/05/16 02:37:39;;;;;;;11.20;3.85;;;14.20;99.90;;;;;;5092627;28;20126;-67
2022/05/16 02:40:06;;;;;;;11.20;3.75;;;14.20;99.90;;;;;;5093550;28;20127;-68
2022/05/16 02:42:32;;;;;;;7.47;3.78;;;14.10;99.90;;;;;;5093827;28;20069;-68
2022/05/16 02:44:57;;;;;;;10.73;3.38;;;14.10;99.90;;;;;;5093926;28;20044;-68
2022/05/16 02:47:23;;;;;;;13.25;4.03;;;14.20;99.90;;;;;;5093893;28;20040;-68
2022/05/16 02:49:49;;;;;;;13.13;4.00;;;14.10;99.90;;;;;;5093445;28;20071;-68
2022/05/16 02:52:15;;;;;;;13.40;4.00;;;14.00;99.90;;;;;;5093691;28;20035;-67
2022/05/16 02:54:41;;;;;;;14.05;3.70;;;14.10;99.90;;;;;;5093641;28;20039;-68
2022/05/16 02:57:08;;;;;;;9.75;3.72;;;14.00;99.90;;;;;;5093486;28;20043;-68
2022/05/16 02:59:34;;;;;;;15.60;3.75;;;14.10;99.90;;;;;;5093173;28;20036;-67
2022/05/16 03:02:02;;;;;;;11.65;4.60;;;14.10;99.90;;;;;;5093668;28;20115;-67
2022/05/16 03:04:27;;;;;;;10.00;3.40;;;14.10;99.90;;;;;;5093596;28;20050;-67
2022/05/16 03:06:54;;;;;;;10.38;3.30;;;14.00;99.90;;;;;;5093463;28;20488;-67
2022/05/16 03:09:21;;;;;;;11.00;3.47;;;14.00;99.90;;;;;;5092942;28;20082;-67
2022/05/16 03:11:46;;;;;;;14.20;3.67;;;14.00;99.90;;;;;;5093507;28;20129;-67
2022/05/16 03:14:12;;;;;;;7.95;3.20;;;14.00;99.90;;;;;;5093341;28;20128;-67
2022/05/16 03:16:38;;;;;;;9.13;3.50;;;13.90;99.90;;;;;;5093340;28;20036;-67
2022/05/16 03:19:04;;;;;;;12.90;3.28;;;13.90;99.90;;;;;;5091766;28;20427;-67
2022/05/16 03:21:30;;;;;;;9.07;3.38;;;13.90;99.90;;;;;;5093273;28;20571;-68
2022/05/16 03:23:57;;;;;;;8.68;3.53;;;13.90;99.90;;;;;;5093110;28;20040;-67
2022/05/16 03:26:23;;;;;;;10.68;3.60;;;13.90;99.90;;;;;;5092970;28;20389;-67
2022/05/16 03:28:49;;;;;;;14.10;3.20;;;13.80;99.90;;;;;;5092340;28;20074;-67
2022/05/16 03:31:14;;;;;;;10.95;3.63;;;13.80;99.90;;;;;;5091130;28;20453;-68
2022/05/16 03:33:40;;;;;;;12.23;3.80;;;13.90;99.90;;;;;;5089482;28;20476;-68
2022/05/16 03:36:06;;;;;;;7.85;3.45;;;13.90;99.90;;;;;;5071127;28;20043;-68
2022/05/16 03:41:16;;;;;;;13.27;3.20;;;13.90;99.90;;;;;;5092379;28;20047;-67
2022/05/16 03:43:42;;;;;;;11.18;3.83;;;13.80;99.90;;;;;;5092230;28;20048;-67
2022/05/16 03:46:08;;;;;;;8.20;3.15;;;13.80;99.90;;;;;;5091338;28;20036;-68
2022/05/16 03:48:34;;;;;;;9.40;3.78;;;13.90;99.90;;;;;;5092217;28;20036;-67
2022/05/16 03:51:02;;;;;;;10.35;3.55;;;13.80;99.90;;;;;;5092570;28;20082;-67
2022/05/16 03:53:27;;;;;;;12.18;3.83;;;13.80;99.90;;;;;;5092354;28;20076;-68
2022/05/16 03:55:53;;;;;;;14.80;3.97;;;13.80;99.90;;;;;;5092567;28;20071;-68
2022/05/16 03:58:19;;;;;;;17.00;3.80;;;13.80;99.90;;;;;;5092228;28;20157;-67
2022/05/16 04:00:45;;;;;;;10.73;3.58;;;13.80;99.90;;;;;;5092013;28;20035;-67
2022/05/16 04:03:11;;;;;;;8.43;3.60;;;13.80;99.90;;;;;;5092378;28;20123;-67
2022/05/16 04:05:37;;;;;;;9.27;3.47;;;13.80;99.90;;;;;;5092128;28;20162;-67
2022/05/16 04:08:03;;;;;;;13.00;3.38;;;13.80;99.90;;;;;;5090910;28;20089;-68
2022/05/16 04:10:28;;;;;;;12.70;3.92;;;13.90;99.90;;;;;;5090487;28;20123;-67
2022/05/16 04:12:54;;;;;;;9.10;3.40;;;13.90;99.90;;;;;;5092156;28;20120;-67
2022/05/16 04:15:21;;;;;;;10.65;3.38;;;13.90;99.90;;;;;;5090972;28;20032;-68
2022/05/16 04:17:48;;;;;;;9.75;3.90;;;14.00;99.90;;;;;;5092016;28;20104;-67
2022/05/16 04:20:14;;;;;;;11.10;3.97;;;14.00;99.90;;;;;;5091548;28;20648;-67
2022/05/16 04:22:42;;;;;;;10.45;3.60;;;14.00;99.90;;;;;;5092180;28;20055;-67
2022/05/16 04:25:11;;;;;;;8.25;4.00;;;14.10;99.90;;;;;;5092032;28;20050;-67
2022/05/16 04:27:36;;;;;;;11.15;4.40;;;14.00;99.90;;;;;;5090495;28;20119;-67
2022/05/16 04:30:03;;;;;;;8.32;3.35;;;14.00;99.90;;;;;;5091528;28;20440;-68
2022/05/16 04:32:28;;;;;;;8.55;3.25;;;14.00;99.90;;;;;;5091893;28;20067;-67
2022/05/16 04:34:54;;;;;;;6.88;3.05;;;14.00;99.90;;;;;;5091780;28;20069;-67
2022/05/16 04:37:19;;;;;;;8.80;3.72;;;13.90;99.90;;;;;;5091890;28;20042;-67
2022/05/16 04:39:45;;;;;;;14.70;4.32;;;14.00;99.90;;;;;;5091534;28;20548;-67
2022/05/16 04:44:55;;;;;;;5.70;2.58;;;14.10;99.90;;;;;;5091669;28;20047;-67
2022/05/16 04:47:21;;;;;;;10.98;3.53;;;14.20;99.90;;;;;;5091289;28;20036;-67
2022/05/16 04:49:46;;;;;;;11.98;3.40;;;14.30;99.90;;;;;;5091199;28;20093;-67
2022/05/16 04:52:12;;;;;;;11.82;3.67;;;14.40;99.90;;;;;;5091503;28;20036;-67
2022/05/16 04:54:40;;;;;;;10.73;3.53;;;14.50;99.90;;;;;;5091433;28;20036;-67
2022/05/16 04:57:06;;;;;;;13.32;3.20;;;14.50;99.90;;;;;;5091400;28;20048;-68
2022/05/16 04:59:32;;;;;;;12.05;3.35;;;14.40;99.90;;;;;;5091094;28;20051;-68
2022/05/16 05:01:58;;;;;;;9.10;3.20;;;14.70;99.90;;;;;;5091222;28;20028;-68
2022/05/16 05:04:24;;;;;;;12.27;4.10;;;14.70;99.90;;;;;;5091256;28;20036;-68
2022/05/16 05:06:50;;;;;;;7.65;3.70;;;14.70;99.90;;;;;;5090129;28;20040;-68
2022/05/16 05:09:16;;;;;;;7.45;2.88;;;14.70;99.90;;;;;;5090943;28;20539;-68
2022/05/16 05:14:32;;;;;;;9.20;3.40;;;14.70;99.90;;;;;;5090979;28;20036;-68
2022/05/16 05:16:58;;;;;;;6.65;3.33;;;14.80;99.90;;;;;;5091037;28;20097;-67
2022/05/16 05:19:23;;;;;;;11.15;3.22;;;14.90;99.90;;;;;;5090850;28;20036;-68
2022/05/16 05:21:49;;;;;;;12.05;3.55;;;15.00;99.90;;;;;;5091044;28;20492;-68
2022/05/16 05:24:15;;;;;;;7.53;3.17;;;15.20;99.90;;;;;;5090963;28;20036;-68
2022/05/16 05:26:42;;;;;;;5.93;3.50;;;15.30;99.90;;;;;;5090880;28;20752;-67
2022/05/16 05:29:09;;;;;;;8.25;3.30;;;15.50;99.90;;;;;;5090343;28;20036;-68
2022/05/16 05:31:34;;;;;;;7.15;3.67;;;15.60;99.90;;;;;;5091133;28;20117;-67
2022/05/16 05:34:01;;;;;;;11.43;2.97;;;15.80;99.90;;;;;;5089508;28;20484;-68
2022/05/16 05:36:27;;;;;;;16.08;4.47;;;15.90;99.90;;;;;;5089469;28;20044;-68
2022/05/16 05:38:53;;;;;;;9.88;3.10;;;16.10;99.90;;;;;;5072559;28;20507;-68
2022/05/16 05:41:20;;;;;;;8.07;3.15;;;16.00;99.90;;;;;;5090954;28;20496;-68
2022/05/16 05:43:46;;;;;;;11.13;3.20;;;16.20;99.90;;;;;;5090641;28;20179;-67
2022/05/16 05:46:12;;;;;;;7.07;2.75;;;16.20;99.90;;;;;;5090976;28;20080;-68
2022/05/16 05:48:37;;;;;;;15.30;3.30;;;16.40;99.90;;;;;;5090644;28;20070;-68
2022/05/16 05:51:04;;;;;;;14.38;3.45;;;16.30;99.90;;;;;;5091468;28;20039;-68
2022/05/16 05:53:30;;;;;;;10.43;3.17;;;16.50;99.90;;;;;;5091300;28;20040;-68
2022/05/16 05:55:56;;;;;;;7.53;3.78;;;16.50;99.90;;;;;;5091263;28;20533;-68
2022/05/16 05:58:21;;;;;;;10.18;3.47;;;16.50;99.90;;;;;;5092535;28;20376;-68
2022/05/16 06:00:47;;;;;;;11.95;3.58;;;16.50;99.90;;;;;;5094519;28;20052;-68
2022/05/16 06:03:13;;;;;;;7.70;3.60;;;16.60;99.90;;;;;;5094747;28;20049;-68
2022/05/16 06:05:39;;;;;;;10.02;3.47;;;16.60;99.90;;;;;;5094695;28;20051;-68
2022/05/16 06:08:05;;;;;;;9.45;3.28;;;16.80;99.90;;;;;;5094371;28;20040;-68
2022/05/16 06:10:31;;;;;;;11.80;3.50;;;16.80;99.90;;;;;;5094123;28;20472;-68
2022/05/16 06:12:56;;;;;;;6.15;3.53;;;16.90;99.90;;;;;;5094365;28;20040;-68
2022/05/16 06:15:22;;;;;;;11.23;3.50;;;16.90;99.90;;;;;;5094588;28;20043;-68
2022/05/16 06:17:49;;;;;;;11.60;2.85;;;16.90;99.90;;;;;;5094462;28;20036;-68
2022/05/16 06:20:15;;;;;;;11.57;3.45;;;16.90;99.90;;;;;;5094033;28;20411;-68
2022/05/16 06:22:41;;;;;;;12.43;3.20;;;16.90;99.90;;;;;;5094275;28;20044;-67
2022/05/16 06:25:31;;;;;;;6.78;2.95;;;17.10;99.90;;;;;;5094203;28;20412;-68
2022/05/16 06:28:04;;;;;;;11.32;3.63;;;17.30;99.90;;;;;;5093937;28;20489;-68
2022/05/16 06:30:30;;;;;;;11.13;3.38;;;17.50;99.90;;;;;;5094040;28;20044;-68
2022/05/16 06:32:56;;;;;;;7.97;3.28;;;17.50;99.90;;;;;;5094213;28;20122;-68
2022/05/16 06:35:22;;;;;;;10.38;3.08;;;17.50;99.90;;;;;;5094043;28;20585;-68
2022/05/16 06:37:47;;;;;;;10.60;3.08;;;17.60;99.90;;;;;;5092588;28;20040;-67
2022/05/16 06:40:14;;;;;;;11.23;3.25;;;17.70;99.90;;;;;;5093710;28;20048;-68
2022/05/16 06:42:40;;;;;;;9.27;3.53;;;17.60;99.90;;;;;;5094044;28;20040;-67
2022/05/16 06:45:07;;;;;;;9.05;2.90;;;17.80;99.90;;;;;;5092799;28;20407;-68
2022/05/16 06:47:33;;;;;;;12.85;3.15;;;17.80;99.90;;;;;;5093655;28;20032;-68
2022/05/16 06:49:58;;;;;;;13.20;3.22;;;18.00;99.90;;;;;;5093262;28;20032;-68
2022/05/16 06:52:24;;;;;;;11.80;3.38;;;18.20;99.90;;;;;;5075308;28;20078;-68
2022/05/16 06:54:50;;;;;;;12.05;3.60;;;18.10;99.90;;;;;;5093881;28;20032;-68
2022/05/16 06:57:16;;;;;;;7.68;3.22;;;18.20;99.90;;;;;;5093906;28;20051;-68
2022/05/16 06:59:42;;;;;;;6.00;3.33;;;18.40;99.90;;;;;;5093613;28;20044;-68
2022/05/16 07:02:07;;;;;;;9.32;2.90;;;18.50;99.90;;;;;;5094742;28;20051;-68
2022/05/16 07:04:34;;;;;;;8.85;2.85;;;18.40;99.90;;;;;;5095169;28;20039;-68
2022/05/16 07:07:00;;;;;;;12.73;3.72;;;18.50;99.90;;;;;;5094796;28;20066;-68
2022/05/16 07:09:26;;;;;;;12.07;3.25;;;18.60;99.90;;;;;;5091415;28;20468;-68
2022/05/16 07:11:51;;;;;;;18.38;3.30;;;18.70;99.90;;;;;;5094161;28;20044;-68
2022/05/16 07:14:17;;;;;;;14.15;3.13;;;18.80;99.90;;;;;;5094091;28;20043;-68
2022/05/16 07:16:42;;;;;;;11.45;2.92;;;18.80;99.90;;;;;;5094471;28;20040;-68
2022/05/16 07:19:08;;;;;;;8.10;2.90;;;18.80;99.90;;;;;;5094627;28;20116;-68
2022/05/16 07:21:34;;;;;;;8.52;3.38;;;18.90;99.90;;;;;;5091840;28;20492;-68
2022/05/16 07:23:59;;;;;;;9.95;3.05;;;19.00;99.90;;;;;;5093127;28;20411;-68
2022/05/16 07:29:09;;;;;;;7.88;2.95;;;19.00;99.90;;;;;;5092722;28;20040;-67
2022/05/16 07:31:36;;;;;;;15.32;2.90;;;19.20;99.90;;;;;;5093052;28;20028;-68
2022/05/16 07:34:02;;;;;;;13.45;2.88;;;19.30;99.90;;;;;;5092945;28;20039;-68
2022/05/16 07:36:27;;;;;;;11.63;3.28;;;19.40;99.90;;;;;;5093180;28;20093;-68
2022/05/16 07:38:53;;;;;;;15.02;3.20;;;19.50;99.90;;;;;;5091425;28;20040;-68
2022/05/16 07:41:19;;;;;;;7.03;2.58;;;19.60;99.90;;;;;;5092857;28;20511;-68
2022/05/16 07:43:44;;;;;;;8.65;2.80;;;19.60;99.90;;;;;;5092809;28;20036;-68
2022/05/16 07:46:10;;;;;;;12.82;3.22;;;19.70;99.90;;;;;;5092662;28;20124;-68
2022/05/16 07:48:35;;;;;;;13.95;3.13;;;19.70;99.90;;;;;;5092066;28;20091;-68
2022/05/16 07:51:01;;;;;;;8.48;3.00;;;19.60;99.90;;;;;;5092719;28;20059;-68
2022/05/16 07:53:27;;;;;;;12.05;2.92;;;19.70;99.90;;;;;;5092597;28;20082;-69
2022/05/16 07:55:55;;;;;;;6.00;2.88;;;19.70;99.90;;;;;;5092659;28;20071;-68
2022/05/16 07:58:22;;;;;;;9.20;3.03;;;19.80;99.90;;;;;;5092343;28;20040;-68
2022/05/16 08:00:50;;;;;;;9.85;2.90;;;19.80;99.90;;;;;;5092180;28;20052;-68
2022/05/16 08:03:19;;;;;;;12.43;3.08;;;20.00;99.90;;;;;;5092272;28;20067;-68
2022/05/16 08:05:44;;;;;;;9.18;2.95;;;20.00;99.90;;;;;;5092352;28;20169;-68
2022/05/16 08:11:00;;;;;;;9.65;3.33;;;20.30;99.90;;;;;;5090759;28;20075;-68
2022/05/16 08:13:27;;;;;;;11.07;3.13;;;20.40;99.90;;;;;;5092116;28;20051;-68
2022/05/16 08:15:53;;;;;;;11.85;2.83;;;20.50;99.90;;;;;;5092009;28;20399;-68
2022/05/16 08:18:19;;;;;;;13.85;2.88;;;20.60;99.90;;;;;;5092104;28;20118;-68
2022/05/16 08:20:47;;;;;;;9.00;2.95;;;20.50;99.90;;;;;;5091687;28;20445;-68
2022/05/16 08:23:16;;;;;;;11.68;3.13;;;20.60;99.90;;;;;;5091902;28;20169;-68
2022/05/16 08:25:44;;;;;;;10.00;2.97;;;20.80;99.90;;;;;;5091885;28;20043;-68
2022/05/16 08:28:10;;;;;;;11.85;3.15;;;20.90;99.90;;;;;;5091498;28;20048;-68
2022/05/16 08:30:35;;;;;;;9.40;3.00;;;20.90;99.90;;;;;;5091701;28;20542;-68
2022/05/16 08:33:02;;;;;;;7.25;2.65;;;21.00;99.90;;;;;;5091955;28;20040;-68
2022/05/16 08:35:28;;;;;;;6.85;2.72;;;21.10;99.90;;;;;;5091852;28;20044;-68
2022/05/16 08:41:04;;;;;;;11.73;3.00;;;21.30;99.90;;;;;;5091246;28;20048;-68
2022/05/16 08:44:01;;;;;;;9.52;3.10;;;21.50;99.90;;;;;;5091723;28;20044;-69
2022/05/16 08:46:55;;;;;;;16.92;2.83;;;21.60;99.90;;;;;;5091654;28;20148;-68
2022/05/16 08:49:40;;;;;;;9.23;3.25;;;21.60;99.90;;;;;;5091241;28;20039;-68
2022/05/16 08:52:29;;;;;;;7.03;3.30;;;21.70;99.90;;;;;;5091545;28;20089;-68
2022/05/16 08:55:17;;;;;;;14.20;3.38;;;21.80;99.90;;;;;;5091456;28;20032;-68
2022/05/16 08:58:03;;;;;;;13.93;3.22;;;21.90;99.90;;;;;;5091588;28;20044;-68
2022/05/16 09:00:48;;;;;;;13.43;3.65;;;22.10;99.90;;;;;;5091155;28;20047;-68
2022/05/16 09:03:26;;;;;;;13.30;3.45;;;22.20;99.90;;;;;;5091478;28;20039;-68
2022/05/16 09:06:01;;;;;;;12.40;3.20;;;22.10;99.90;;;;;;5091507;28;20416;-69
2022/05/16 09:08:49;;;;;;;9.93;3.22;;;22.10;99.90;;;;;;5090979;28;20054;-68
2022/05/16 09:11:46;;;;;;;10.85;3.25;;;22.10;99.90;;;;;;5091225;28;20078;-68
2022/05/16 09:14:42;;;;;;;8.82;2.72;;;22.00;99.90;;;;;;5090028;28;20511;-68
2022/05/16 09:17:16;;;;;;;12.88;3.10;;;22.00;99.90;;;;;;5091119;28;20560;-68
2022/05/16 09:19:58;;;;;;;9.38;3.00;;;22.10;99.90;;;;;;5090620;28;20629;-68
2022/05/16 09:22:31;;;;;;;;;;;22.10;99.90;;;;;;5091389;28;20086;-68
2022/05/16 09:25:18;;;;;;;14.65;3.42;;;22.10;99.90;;;;;;5091372;28;19923;-68
2022/05/16 09:30:34;;;;;;;15.70;3.13;;;22.20;99.90;;;;;;5090708;28;20040;-68
2022/05/16 09:33:11;;;;;;;12.30;3.35;;;22.30;99.90;;;;;;5090150;28;20036;-69
2022/05/16 09:35:37;;;;;;;7.70;2.83;;;22.40;99.90;;;;;;5089477;28;20039;-68
2022/05/16 09:38:03;;;;;;;16.60;3.05;;;22.50;99.80;;;;;;5090645;28;20044;-68
2022/05/16 09:40:46;;;;;;;8.95;3.03;;;22.70;98.30;;;;;;5090622;28;20079;-69
2022/05/16 09:43:19;;;;;;;;;;;22.70;99.50;;;;;;5090001;28;20515;-67
2022/05/16 09:45:49;;;;;;;11.25;2.97;;;22.90;97.10;;;;;;5091030;28;19947;-67
2022/05/16 09:48:20;;;;;;;14.35;3.13;;;22.80;99.20;;;;;;5090558;28;20516;-67
2022/05/16 09:50:58;;;;;;;10.68;3.00;;;22.90;98.60;;;;;;5090939;28;20369;-67
2022/05/16 09:53:41;;;;;;;14.80;3.47;;;22.90;97.10;;;;;;5090737;28;20036;-67
2022/05/16 09:56:20;;;;;;;10.88;3.28;;;23.00;96.80;;;;;;5091072;28;20040;-67
2022/05/16 09:58:54;;;;;;;13.85;3.13;;;23.30;96.70;;;;;;5090354;28;20120;-67
2022/05/16 10:01:34;;;;;;;15.82;3.53;;;23.30;95.40;;;;;;5090816;28;20509;-67
2022/05/16 10:04:21;;;;;;;12.50;3.47;;;23.40;96.00;;;;;;5090643;28;20412;-67
2022/05/16 10:07:02;;;;;;;9.65;3.63;;;23.70;96.10;;;;;;5090770;28;20051;-67
2022/05/16 10:09:33;;;;;;;12.60;3.17;;;23.80;95.60;;;;;;5090338;28;20080;-67
2022/05/16 10:11:59;;;;;;;10.30;3.10;;;23.90;95.80;;;;;;5090648;28;20044;-67
2022/05/16 10:14:25;;;;;;;12.02;3.45;;;24.00;94.70;;;;;;5090449;28;20032;-67
2022/05/16 10:16:53;;;;;;;8.75;3.00;;;24.10;94.10;;;;;;5090514;28;20038;-67
2022/05/16 10:19:23;;;;;;;8.90;3.28;;;24.30;95.80;;;;;;5090245;28;20442;-67
2022/05/16 10:22:01;;;;;;;10.45;3.38;;;24.30;93.70;;;;;;5090617;28;20165;-67
2022/05/16 10:24:31;;;;;;;10.20;3.15;;;24.40;94.90;;;;;;5090395;28;20515;-67
2022/05/16 10:27:01;;;;;;;7.47;2.92;;;24.50;95.20;;;;;;5090259;28;20486;-67
2022/05/16 10:29:32;;;;;;;10.60;3.20;;;24.60;91.50;;;;;;5090325;28;20404;-67
2022/05/16 10:35:02;;;;;;;10.65;3.20;;;24.60;92.60;;;;;;5090397;28;20036;-67
2022/05/16 10:37:29;;;;;;;6.38;2.88;;;24.50;93.50;;;;;;5090201;28;20044;-67
2022/05/16 10:40:07;;;;;;;12.88;3.20;;;24.50;94.30;;;;;;5088644;28;20070;-67
2022/05/16 10:42:38;;;;;;;14.43;3.20;;;24.40;92.80;;;;;;5090430;28;20090;-67
2022/05/16 10:45:12;;;;;;;12.23;3.50;;;24.30;94.00;;;;;;5092743;28;20047;-67
2022/05/16 10:47:46;;;;;;;8.05;3.35;;;24.30;94.50;;;;;;5093926;28;20044;-67
2022/05/16 10:50:18;;;;;;;11.93;3.03;;;24.20;94.50;;;;;;5092374;28;20032;-67
2022/05/16 10:52:43;;;;;;;;;;;24.10;95.20;;;;;;5094435;28;20093;-67
2022/05/16 10:55:10;;;;;;;10.82;3.15;;;24.10;96.60;;;;;;5093819;28;20388;-67
2022/05/16 10:58:03;;;;;;;9.13;3.28;;;24.00;96.40;;;;;;5093670;28;20116;-67
2022/05/16 11:00:57;;;;;;;12.40;3.78;;;24.00;96.20;;;;;;5093156;28;20074;-67
2022/05/16 11:03:46;;;;;;;9.00;3.40;;;23.90;97.60;;;;;;5092393;28;20035;-67
2022/05/16 11:06:40;;;;;;;10.25;3.05;;;23.90;97.50;;;;;;5093557;28;20079;-67
2022/05/16 11:09:46;;;;;;;15.90;3.20;;;23.90;97.50;;;;;;5093198;28;20040;-67
2022/05/16 11:12:14;;;;;;;19.38;3.53;;;23.80;98.10;;;;;;5092314;28;20044;-67
2022/05/16 11:15:06;;;;;;;11.30;3.00;;;23.70;98.30;;;;;;5093258;28;20484;-67
2022/05/16 11:18:11;;;;;;;12.48;3.45;;;23.70;98.60;;;;;;5092051;28;20389;-67
2022/05/16 11:20:43;;;;;;;14.95;3.67;;;23.60;99.90;;;;;;5092345;28;20044;-67
2022/05/16 11:23:21;;;;;;;13.60;3.50;;;23.40;99.90;;;;;;5093127;28;20408;-67
2022/05/16 11:26:07;;;;;;;8.90;3.45;;;23.30;99.90;;;;;;5093206;28;20127;-67
2022/05/16 11:31:58;;;;;;;9.88;3.20;;;23.20;99.90;;;;;;5092901;28;20044;-67
2022/05/16 11:34:49;;;;;;;12.25;3.92;;;23.10;99.90;;;;;;5093011;28;20047;-67
2022/05/16 11:37:44;;;;;;;11.55;3.60;;;23.00;99.90;;;;;;5092903;28;20488;-67
2022/05/16 11:40:52;;;;;;;10.02;3.17;;;23.00;99.90;;;;;;5091348;28;20047;-67
2022/05/16 11:43:24;;;;;;;10.98;3.55;;;23.00;99.90;;;;;;5037415;28;20060;-67
2022/05/16 11:46:11;;;;;;;7.18;3.50;;;23.00;99.90;;;;;;5092833;28;20039;-68
2022/05/16 11:48:43;;;;;;;8.77;3.25;;;22.90;99.90;;;;;;5090923;28;20080;-67
2022/05/16 11:51:44;;;;;;;12.27;3.38;;;23.00;99.90;;;;;;5092643;28;20040;-68
2022/05/16 11:54:14;;;;;;;9.18;3.42;;;23.00;99.90;;;;;;5092645;28;20028;-67
2022/05/16 12:03:03;;;;;;;12.13;4.07;;;22.90;99.90;;;;;;5092387;28;20044;-67
2022/05/16 12:05:39;;;;;;;10.27;4.00;;;22.90;99.90;;;;;;5074379;28;20140;-67
2022/05/16 12:08:24;;;;;;;12.27;4.03;;;23.00;99.90;;;;;;5092244;28;20115;-67
2022/05/16 12:11:04;;;;;;;13.35;3.75;;;23.10;99.90;;;;;;5092092;28;20404;-67
2022/05/16 12:13:34;;;;;;;14.20;3.50;;;23.20;99.90;;;;;;5092361;28;20058;-67
2022/05/16 12:16:12;;;;;;;12.98;3.58;;;23.30;99.90;;;;;;5090860;28;20044;-67
2022/05/16 12:18:39;;;;;;;9.40;3.30;;;23.40;99.90;;;;;;5091806;28;20048;-67
2022/05/16 12:21:06;;;;;;;5.88;2.83;;;23.40;99.90;;;;;;5092059;28;20039;-67
2022/05/16 12:23:49;;;;;;;8.68;3.70;;;23.40;99.90;;;;;;5091923;28;20048;-67
2022/05/16 12:26:26;;;;;;;11.32;2.97;;;23.40;99.90;;;;;;5092037;28;20040;-67
2022/05/16 12:29:08;;;;;;;12.02;3.33;;;23.50;99.90;;;;;;5091408;28;20097;-67
2022/05/16 12:31:49;;;;;;;9.03;3.07;;;23.50;99.90;;;;;;5091867;28;20075;-67
2022/05/16 12:34:35;;;;;;;10.35;2.85;;;23.50;99.90;;;;;;5092048;28;20439;-67
2022/05/16 12:37:05;;;;;;;7.65;3.03;;;23.60;99.90;;;;;;5091687;28;20078;-67
2022/05/16 12:40:03;;;;;;;11.55;3.17;;;23.60;99.90;;;;;;5091469;28;20034;-67
2022/05/16 12:42:40;;;;;;;7.85;3.10;;;23.60;99.90;;;;;;5091630;28;20071;-67
2022/05/16 12:45:32;;;;;;;10.18;3.30;;;23.60;99.90;;;;;;5090268;28;20028;-66
2022/05/16 12:48:15;;;;;;;7.25;3.22;;;23.60;99.90;;;;;;5091487;28;20161;-67
2022/05/16 12:51:06;;;;;;;8.43;2.78;;;23.60;99.90;;;;;;5091205;28;20044;-67
2022/05/16 12:53:50;;;;;;;9.43;4.38;;;23.60;99.90;;;;;;5091699;28;20390;-67
2022/05/16 12:56:28;;;;;;;7.53;3.28;;;23.50;99.90;;;;;;5091537;28;20046;-67
2022/05/16 12:58:59;;;;;;;7.25;3.40;;;23.50;99.90;;;;;;5090905;28;20079;-67
2022/05/16 13:01:37;;;;;;;10.05;3.50;;;23.50;99.90;;;;;;5091312;28;20516;-67
2022/05/16 13:04:41;;;;;;;6.78;3.40;;;23.40;99.90;;;;;;5091539;28;20043;-67
2022/05/16 13:08:04;;;;;;;9.52;3.72;;;23.40;99.90;;;;;;5028040;28;20118;-67
2022/05/16 13:10:42;;;;;;;8.93;4.18;;;23.40;99.90;;;;;;4950419;29;20424;-67
2022/05/16 13:13:29;;;;;;;9.20;3.97;;;23.40;99.90;;;;;;4950711;29;20092;-67
2022/05/16 13:16:06;;;;;;;10.93;3.47;;;23.50;99.90;;;;;;5014291;28;20071;-67
2022/05/16 13:18:40;;;;;;;11.68;4.30;;;23.50;99.90;;;;;;5028242;28;20601;-67
2022/05/16 13:21:13;;;;;;;13.55;3.83;;;23.50;99.90;;;;;;5028591;28;20764;-67
2022/05/16 13:23:39;;;;;;;11.13;3.75;;;23.50;99.90;;;;;;5028481;28;20513;-67
2022/05/16 13:31:44;;;;;;;9.13;3.75;;;23.60;99.90;;;;;;5028386;28;20121;-67
2022/05/16 13:34:12;;;;;;;8.93;4.53;;;23.60;99.90;;;;;;5028350;28;20041;-67
2022/05/16 13:36:46;;;;;;;13.80;4.85;;;23.60;99.90;;;;;;5028282;28;20089;-67
2022/05/16 13:39:14;;;;;;;8.73;3.85;;;23.60;99.90;;;;;;5027985;28;20053;-67
2022/05/16 13:41:40;;;;;;;9.32;3.72;;;23.60;99.90;;;;;;5034643;28;20127;-67
2022/05/16 13:44:11;;;;;;;10.23;3.33;;;23.60;99.90;;;;;;5090905;28;20070;-67